createdAt,value
2023-04-12T00:00:12.110Z,1.70
2023-04-12T00:02:42.131Z,1.60
2023-04-12T00:05:11.795Z,1.60
2023-04-12T00:07:40.399Z,1.88
2023-04-12T00:10:10.650Z,1.92
2023-04-12T00:12:41.124Z,1.60
2023-04-12T00:15:10.528Z,1.30
2023-04-12T00:17:38.798Z,6.13
2023-04-12T00:20:12.272Z,3.13
2023-04-12T00:22:41.690Z,1.70
2023-04-12T00:25:10.315Z,2.60
2023-04-12T00:27:40.881Z,1.60
2023-04-12T00:30:10.162Z,1.63
2023-04-12T00:32:38.417Z,1.58
2023-04-12T00:35:07.429Z,1.52
2023-04-12T00:37:38.603Z,1.63
2023-04-12T00:40:09.868Z,1.63
2023-04-12T00:42:39.826Z,1.30
2023-04-12T00:45:09.436Z,1.73
2023-04-12T00:47:38.565Z,1.45
2023-04-12T00:50:08.601Z,2.38
2023-04-12T00:52:37.772Z,1.50
2023-04-12T00:55:07.649Z,2.00
2023-04-12T00:57:37.912Z,2.17
2023-04-12T01:00:12.823Z,1.63
2023-04-12T01:02:42.935Z,1.73
2023-04-12T01:05:15.012Z,1.75
2023-04-12T01:07:54.353Z,1.95
2023-04-12T01:10:31.244Z,1.80
2023-04-12T01:13:11.577Z,1.77
2023-04-12T01:15:53.512Z,1.63
2023-04-12T01:18:28.048Z,2.03
2023-04-12T01:21:01.492Z,1.75
2023-04-12T01:24:02.883Z,2.55
2023-04-12T01:26:41.592Z,2.30
2023-04-12T01:29:13.612Z,1.80
2023-04-12T01:31:45.793Z,1.45
2023-04-12T01:34:16.269Z,1.80
2023-04-12T01:36:47.393Z,2.08
2023-04-12T01:39:15.889Z,2.30
2023-04-12T01:41:45.720Z,1.70
2023-04-12T01:44:19.197Z,1.33
2023-04-12T01:46:48.517Z,1.98
2023-04-12T01:49:18.561Z,1.88
2023-04-12T01:51:53.909Z,1.90
2023-04-12T01:54:25.910Z,1.55
2023-04-12T01:56:59.147Z,2.38
2023-04-12T01:59:33.693Z,1.10
2023-04-12T02:02:03.621Z,1.73
2023-04-12T02:04:32.917Z,1.83
2023-04-12T02:07:01.542Z,1.83
2023-04-12T02:09:29.825Z,2.10
2023-04-12T02:11:58.127Z,2.33
2023-04-12T02:14:27.275Z,1.77
2023-04-12T02:16:58.454Z,2.17
2023-04-12T02:19:27.174Z,1.83
2023-04-12T02:21:55.651Z,1.90
2023-04-12T02:24:24.277Z,2.58
2023-04-12T02:26:52.573Z,2.10
2023-04-12T02:29:20.845Z,1.70
2023-04-12T02:31:49.162Z,2.22
2023-04-12T02:34:19.495Z,2.33
2023-04-12T02:36:48.940Z,1.70
2023-04-12T02:39:21.466Z,2.38
2023-04-12T02:41:49.883Z,1.50
2023-04-12T02:44:18.071Z,1.90
2023-04-12T02:46:46.292Z,2.22
2023-04-12T02:49:17.209Z,1.95
2023-04-12T02:51:47.416Z,1.95
2023-04-12T02:54:15.616Z,1.80
2023-04-12T02:56:43.936Z,1.33
2023-04-12T02:59:12.244Z,1.98
2023-04-12T03:01:40.825Z,1.90
2023-04-12T03:04:09.149Z,1.63
2023-04-12T03:06:40.278Z,1.83
2023-04-12T03:09:09.976Z,1.50
2023-04-12T03:11:38.186Z,1.60
2023-04-12T03:14:06.465Z,1.92
2023-04-12T03:16:37.056Z,1.83
2023-04-12T03:19:06.401Z,1.83
2023-04-12T03:21:34.738Z,1.60
2023-04-12T03:24:04.386Z,1.77
2023-04-12T03:26:34.173Z,1.70
2023-04-12T03:29:05.451Z,1.48
2023-04-12T03:31:33.777Z,1.95
2023-04-12T03:34:02.319Z,1.52
2023-04-12T03:36:31.501Z,1.70
2023-04-12T03:38:59.729Z,1.85
2023-04-12T03:41:29.735Z,1.58
2023-04-12T03:43:59.496Z,1.77
2023-04-12T03:46:27.780Z,1.35
2023-04-12T03:48:56.028Z,1.95
2023-04-12T03:51:26.981Z,1.50
2023-04-12T03:53:55.727Z,1.10
2023-04-12T03:56:24.172Z,1.35
2023-04-12T03:58:52.430Z,1.33
2023-04-12T04:01:24.240Z,1.88
2023-04-12T04:03:53.484Z,1.92
2023-04-12T04:06:21.828Z,1.00
2023-04-12T04:08:50.091Z,1.52
2023-04-12T04:11:18.297Z,1.50
2023-04-12T04:13:47.253Z,1.60
2023-04-12T04:16:15.563Z,1.50
2023-04-12T04:18:45.567Z,2.25
2023-04-12T04:21:14.292Z,1.85
2023-04-12T04:23:45.126Z,1.85
2023-04-12T04:26:13.986Z,1.40
2023-04-12T04:28:45.618Z,1.45
2023-04-12T04:31:17.583Z,1.20
2023-04-12T04:33:47.743Z,1.50
2023-04-12T04:36:17.135Z,1.50
2023-04-12T04:38:46.109Z,1.50
2023-04-12T04:41:14.295Z,1.55
2023-04-12T04:43:42.847Z,1.45
2023-04-12T04:46:11.125Z,1.98
2023-04-12T04:48:40.882Z,1.20
2023-04-12T04:51:11.094Z,1.20
2023-04-12T04:53:40.806Z,1.58
2023-04-12T04:56:09.997Z,1.77
2023-04-12T04:58:38.367Z,1.38
2023-04-12T05:01:07.232Z,1.50
2023-04-12T05:03:35.623Z,1.50
2023-04-12T05:06:05.209Z,1.45
2023-04-12T05:08:34.921Z,1.33
2023-04-12T05:11:03.162Z,1.70
2023-04-12T05:13:31.432Z,1.33
2023-04-12T05:15:59.656Z,2.08
2023-04-12T05:18:27.878Z,1.25
2023-04-12T05:20:56.065Z,1.10
2023-04-12T05:23:24.279Z,1.40
2023-04-12T05:25:54.142Z,1.30
2023-04-12T05:28:22.420Z,1.25
2023-04-12T05:30:51.589Z,1.90
2023-04-12T05:33:19.992Z,1.70
2023-04-12T05:35:48.725Z,1.77
2023-04-12T05:38:17.153Z,2.40
2023-04-12T05:40:47.382Z,1.80
2023-04-12T05:43:17.820Z,1.50
2023-04-12T05:45:46.218Z,1.67
2023-04-12T05:48:14.974Z,1.48
2023-04-12T05:50:43.181Z,1.30
2023-04-12T05:53:13.788Z,1.20
2023-04-12T05:55:42.383Z,1.20
2023-04-12T05:58:10.616Z,1.20
2023-04-12T06:00:42.152Z,1.45
2023-04-12T06:03:12.470Z,1.05
2023-04-12T06:05:41.206Z,0.85
2023-04-12T06:08:10.421Z,1.33
2023-04-12T06:10:40.475Z,1.35
2023-04-12T06:13:08.721Z,1.40
2023-04-12T06:15:37.385Z,1.38
2023-04-12T06:18:08.644Z,1.30
2023-04-12T06:20:40.539Z,1.45
2023-04-12T06:23:08.958Z,1.73
2023-04-12T06:25:37.280Z,1.00
2023-04-12T06:28:05.866Z,1.45
2023-04-12T06:30:34.160Z,1.00
2023-04-12T06:33:02.470Z,1.30
2023-04-12T06:35:32.365Z,1.45
2023-04-12T06:38:00.656Z,1.17
2023-04-12T06:40:28.997Z,1.23
2023-04-12T06:42:57.586Z,1.33
2023-04-12T06:45:30.870Z,1.38
2023-04-12T06:47:59.330Z,1.20
2023-04-12T06:50:28.006Z,1.33
2023-04-12T06:53:00.726Z,1.40
2023-04-12T06:55:29.402Z,1.20
2023-04-12T06:57:57.705Z,1.40
2023-04-12T07:00:26.328Z,1.35
2023-04-12T07:02:54.920Z,1.50
2023-04-12T07:05:23.551Z,1.13
2023-04-12T07:07:52.037Z,0.98
2023-04-12T07:10:21.969Z,1.40
2023-04-12T07:12:51.958Z,1.52
2023-04-12T07:15:20.262Z,1.55
2023-04-12T07:17:48.562Z,1.38
2023-04-12T07:20:17.531Z,1.50
2023-04-12T07:22:45.873Z,1.55
2023-04-12T07:25:14.070Z,1.50
2023-04-12T07:27:43.939Z,1.13
2023-04-12T07:30:13.120Z,1.80
2023-04-12T07:32:41.383Z,2.13
2023-04-12T07:35:10.387Z,1.40
2023-04-12T07:37:39.181Z,1.52
2023-04-12T07:40:08.645Z,2.05
2023-04-12T07:42:36.909Z,1.33
2023-04-12T07:45:07.689Z,1.75
2023-04-12T07:47:36.167Z,1.20
2023-04-12T07:50:04.768Z,1.52
2023-04-12T07:52:33.844Z,1.90
2023-04-12T07:55:02.133Z,1.80
2023-04-12T07:57:32.985Z,2.30
2023-04-12T08:00:02.442Z,1.48
2023-04-12T08:02:32.140Z,1.40
2023-04-12T08:05:00.576Z,1.40
2023-04-12T08:07:28.807Z,2.33
2023-04-12T08:09:57.020Z,2.33
2023-04-12T08:12:26.530Z,1.88
2023-04-12T08:14:56.628Z,1.30
2023-04-12T08:17:28.697Z,2.03
2023-04-12T08:19:58.471Z,1.45
2023-04-12T08:22:27.169Z,1.70
2023-04-12T08:24:55.509Z,1.88
2023-04-12T08:27:24.075Z,1.65
2023-04-12T08:29:52.408Z,2.13
2023-04-12T08:32:20.678Z,2.00
2023-04-12T08:34:48.978Z,2.08
2023-04-12T08:37:18.731Z,2.22
2023-04-12T08:39:47.218Z,2.05
2023-04-12T08:42:16.927Z,2.03
2023-04-12T08:44:45.905Z,2.35
2023-04-12T08:47:14.162Z,2.33
2023-04-12T08:49:42.472Z,2.38
2023-04-12T08:52:11.708Z,2.30
2023-04-12T08:54:41.620Z,2.20
2023-04-12T08:57:10.667Z,2.05
2023-04-12T08:59:40.707Z,2.28
2023-04-12T09:02:09.130Z,2.08
2023-04-12T09:04:49.155Z,2.08
2023-04-12T09:07:17.955Z,1.67
2023-04-12T09:09:49.279Z,1.90
2023-04-12T09:12:20.218Z,2.20
2023-04-12T09:14:48.709Z,2.05
2023-04-12T09:17:24.570Z,2.10
2023-04-12T09:19:56.090Z,2.33
2023-04-12T09:22:35.497Z,1.85
2023-04-12T09:25:05.951Z,2.47
2023-04-12T09:27:48.257Z,2.30
2023-04-12T09:30:17.827Z,1.83
2023-04-12T09:32:46.313Z,2.00
2023-04-12T09:35:14.647Z,1.65
2023-04-12T09:37:43.111Z,1.60
2023-04-12T09:40:13.589Z,1.88
2023-04-12T09:42:54.020Z,1.80
2023-04-12T09:45:24.446Z,2.03
2023-04-12T09:47:53.680Z,2.10
2023-04-12T09:50:23.209Z,1.75
2023-04-12T09:52:51.865Z,2.08
2023-04-12T09:55:23.489Z,1.92
2023-04-12T09:57:53.126Z,2.00
2023-04-12T10:00:25.540Z,2.28
2023-04-12T10:02:55.838Z,2.00
2023-04-12T10:05:27.257Z,2.25
2023-04-12T10:07:56.734Z,1.98
2023-04-12T10:10:26.474Z,1.85
2023-04-12T10:12:54.884Z,2.22
2023-04-12T10:15:23.523Z,2.33
2023-04-12T10:17:54.197Z,2.00
2023-04-12T10:20:27.093Z,1.80
2023-04-12T10:22:59.812Z,1.50
2023-04-12T10:25:31.903Z,1.80
2023-04-12T10:28:15.674Z,1.58
2023-04-12T10:30:44.135Z,1.98
2023-04-12T10:33:20.650Z,2.28
2023-04-12T10:35:57.769Z,1.45
2023-04-12T10:38:33.009Z,1.35
2023-04-12T10:41:14.313Z,2.20
2023-04-12T10:43:43.244Z,1.75
2023-04-12T10:46:44.578Z,1.60
2023-04-12T10:49:14.092Z,1.48
2023-04-12T10:52:02.773Z,1.40
2023-04-12T10:54:36.461Z,1.73
2023-04-12T10:57:07.170Z,1.92
2023-04-12T10:59:57.124Z,1.45
2023-04-12T11:02:25.871Z,1.65
2023-04-12T11:05:09.374Z,1.77
2023-04-12T11:07:41.999Z,1.75
2023-04-12T11:10:17.561Z,1.73
2023-04-12T11:12:55.369Z,1.58
2023-04-12T11:15:29.021Z,1.55
2023-04-12T11:18:00.596Z,1.50
2023-04-12T11:20:33.531Z,1.95
2023-04-12T11:23:02.502Z,1.27
2023-04-12T11:25:31.665Z,1.63
2023-04-12T11:28:02.730Z,1.40
2023-04-12T11:30:32.323Z,1.70
2023-04-12T11:33:00.668Z,1.38
2023-04-12T11:35:30.513Z,1.70
2023-04-12T11:37:58.874Z,1.98
2023-04-12T11:40:27.551Z,1.55
2023-04-12T11:42:57.623Z,1.73
2023-04-12T11:45:29.506Z,1.70
2023-04-12T11:47:59.089Z,1.75
2023-04-12T11:50:32.397Z,1.77
2023-04-12T11:53:12.575Z,2.00
2023-04-12T11:55:40.863Z,1.90
2023-04-12T11:58:09.076Z,1.70
2023-04-12T12:00:38.836Z,1.73
2023-04-12T12:03:08.537Z,1.60
2023-04-12T12:05:39.311Z,1.40
2023-04-12T12:08:08.575Z,1.58
2023-04-12T12:10:52.018Z,2.00
2023-04-12T12:13:24.146Z,1.98
2023-04-12T12:15:55.020Z,2.20
2023-04-12T12:18:28.990Z,1.67
2023-04-12T12:20:57.304Z,2.00
2023-04-12T12:23:32.213Z,1.60
2023-04-12T12:26:14.813Z,1.58
2023-04-12T12:28:51.724Z,1.80
2023-04-12T12:31:23.891Z,1.70
2023-04-12T12:33:56.922Z,1.38
2023-04-12T12:36:32.807Z,1.58
2023-04-12T12:39:06.989Z,1.70
2023-04-12T12:41:35.678Z,1.45
2023-04-12T12:44:03.998Z,1.00
2023-04-12T12:49:05.340Z,1.52
2023-04-12T12:51:33.526Z,1.55
2023-04-12T12:54:02.269Z,2.15
2023-04-12T12:56:30.398Z,1.52
2023-04-12T12:58:59.095Z,1.58
2023-04-12T13:01:27.912Z,2.20
2023-04-12T13:03:59.175Z,1.63
2023-04-12T13:06:28.341Z,1.90
2023-04-12T13:08:56.800Z,1.92
2023-04-12T13:11:27.845Z,1.83
2023-04-12T13:13:56.181Z,1.60
2023-04-12T13:16:26.814Z,1.60
2023-04-12T13:18:55.802Z,2.10
2023-04-12T13:21:27.130Z,1.95
2023-04-12T13:23:55.720Z,1.80
2023-04-12T13:26:25.788Z,1.33
2023-04-12T13:28:54.044Z,1.80
2023-04-12T13:31:22.360Z,1.40
2023-04-12T13:33:50.598Z,2.05
2023-04-12T13:36:18.783Z,1.80
2023-04-12T13:38:48.903Z,1.95
2023-04-12T13:41:17.089Z,2.28
2023-04-12T13:43:45.205Z,1.80
2023-04-12T13:46:13.871Z,1.77
2023-04-12T13:48:42.049Z,1.60
2023-04-12T13:51:10.888Z,2.08
2023-04-12T13:53:41.393Z,2.03
2023-04-12T13:56:12.134Z,1.40
2023-04-12T13:58:41.020Z,1.80
2023-04-12T14:01:10.053Z,1.77
2023-04-12T14:03:38.426Z,1.67
2023-04-12T14:06:07.281Z,2.25
2023-04-12T14:08:35.520Z,2.40
2023-04-12T14:11:04.349Z,2.33
2023-04-12T14:13:34.007Z,2.35
2023-04-12T14:16:02.250Z,2.65
2023-04-12T14:18:30.567Z,3.22
2023-04-12T14:20:59.669Z,2.17
2023-04-12T14:23:27.876Z,2.72
2023-04-12T14:25:56.261Z,3.17
2023-04-12T14:28:30.727Z,2.75
2023-04-12T14:31:03.088Z,2.80
2023-04-12T14:33:33.186Z,2.75
2023-04-12T14:36:05.007Z,2.55
2023-04-12T14:38:33.479Z,2.67
2023-04-12T14:41:01.782Z,2.83
2023-04-12T14:43:29.940Z,2.72
2023-04-12T14:45:59.659Z,2.83
2023-04-12T14:48:27.870Z,2.88
2023-04-12T14:50:56.230Z,3.28
2023-04-12T14:53:24.482Z,3.30
2023-04-12T14:55:52.699Z,3.10
2023-04-12T14:58:21.008Z,2.80
2023-04-12T15:00:49.902Z,3.13
2023-04-12T15:03:21.070Z,2.28
2023-04-12T15:05:49.859Z,2.85
2023-04-12T15:08:18.051Z,2.42
2023-04-12T15:10:46.608Z,2.33
2023-04-12T15:13:14.751Z,2.38
2023-04-12T15:15:42.940Z,2.60
2023-04-12T15:18:11.514Z,2.47
2023-04-12T15:20:41.195Z,1.73
2023-04-12T15:23:09.555Z,1.70
2023-04-12T15:25:37.718Z,1.58
2023-04-12T15:28:06.729Z,1.60
2023-04-12T15:30:34.921Z,1.60
2023-04-12T15:33:03.220Z,1.95
2023-04-12T15:35:34.131Z,1.40
2023-04-12T15:38:04.560Z,1.50
2023-04-12T15:40:32.786Z,1.33
2023-04-12T15:43:01.021Z,1.40
2023-04-12T15:45:29.308Z,1.98
2023-04-12T15:47:59.442Z,1.90
2023-04-12T15:50:27.673Z,1.48
2023-04-12T15:52:57.909Z,1.98
2023-04-12T15:55:27.626Z,1.52
2023-04-12T15:57:57.134Z,1.60
2023-04-12T16:00:27.117Z,1.73
2023-04-12T16:02:56.528Z,1.55
2023-04-12T16:05:26.738Z,1.92
2023-04-12T16:07:56.787Z,2.03
2023-04-12T16:10:25.216Z,1.77
2023-04-12T16:12:56.590Z,2.03
2023-04-12T16:15:24.802Z,1.98
2023-04-12T16:17:55.782Z,1.60
2023-04-12T16:20:24.585Z,2.00
2023-04-12T16:22:56.842Z,1.70
2023-04-12T16:25:27.368Z,1.73
2023-04-12T16:27:57.388Z,1.50
2023-04-12T16:30:26.087Z,1.88
2023-04-12T16:32:54.756Z,1.73
2023-04-12T16:35:23.257Z,2.03
2023-04-12T16:37:51.471Z,1.77
2023-04-12T16:40:20.351Z,1.73
2023-04-12T16:42:48.568Z,2.05
2023-04-12T16:45:18.274Z,1.80
2023-04-12T16:47:48.037Z,2.55
2023-04-12T16:50:16.802Z,1.80
2023-04-12T16:52:45.116Z,2.30
2023-04-12T16:55:13.772Z,2.13
2023-04-12T16:57:42.897Z,1.77
2023-04-12T17:00:19.521Z,1.52
2023-04-12T17:02:50.597Z,1.63
2023-04-12T17:05:19.946Z,1.58
2023-04-12T17:07:49.837Z,2.22
2023-04-12T17:10:18.784Z,1.77
2023-04-12T17:12:47.721Z,1.65
2023-04-12T17:15:18.017Z,1.80
2023-04-12T17:17:50.097Z,1.90
2023-04-12T17:20:19.759Z,2.00
2023-04-12T17:22:49.801Z,2.08
2023-04-12T17:25:19.883Z,1.75
2023-04-12T17:27:49.631Z,2.00
2023-04-12T17:30:18.743Z,2.05
2023-04-12T17:32:48.519Z,1.98
2023-04-12T17:35:19.465Z,2.42
2023-04-12T17:37:48.055Z,2.38
2023-04-12T17:40:16.337Z,2.83
2023-04-12T17:42:45.150Z,2.40
2023-04-12T17:45:14.812Z,2.47
2023-04-12T17:47:47.047Z,1.88
2023-04-12T17:50:17.247Z,1.85
2023-04-12T17:52:45.790Z,1.85
2023-04-12T17:55:13.961Z,1.65
2023-04-12T17:57:44.433Z,1.88
2023-04-12T18:00:13.582Z,2.50
2023-04-12T18:02:42.068Z,2.08
2023-04-12T18:05:11.377Z,2.55
2023-04-12T18:07:43.886Z,2.00
2023-04-12T18:10:19.628Z,2.55
2023-04-12T18:12:49.657Z,2.63
2023-04-12T18:15:18.275Z,1.92
2023-04-12T18:17:46.501Z,2.20
2023-04-12T18:20:16.560Z,1.60
2023-04-12T18:22:46.481Z,2.25
2023-04-12T18:25:14.844Z,2.75
2023-04-12T18:27:43.094Z,2.20
2023-04-12T18:30:11.576Z,2.33
2023-04-12T18:32:40.052Z,2.03
2023-04-12T18:35:09.262Z,2.28
2023-04-12T18:37:37.470Z,1.85
2023-04-12T18:40:08.545Z,2.63
2023-04-12T18:42:36.708Z,2.67
2023-04-12T18:45:05.170Z,2.15
2023-04-12T18:47:33.416Z,2.60
2023-04-12T18:50:01.837Z,1.95
2023-04-12T18:52:30.078Z,2.15
2023-04-12T18:54:58.290Z,1.85
2023-04-12T18:57:27.932Z,2.35
2023-04-12T18:59:56.529Z,2.50
2023-04-12T19:02:25.009Z,2.25
2023-04-12T19:04:53.480Z,2.40
2023-04-12T19:07:22.340Z,2.50
2023-04-12T19:09:51.125Z,2.55
2023-04-12T19:12:22.615Z,3.08
2023-04-12T19:14:52.962Z,2.05
2023-04-12T19:17:24.979Z,2.70
2023-04-12T19:19:53.200Z,2.63
2023-04-12T19:22:21.713Z,3.05
2023-04-12T19:24:51.648Z,2.60
2023-04-12T19:27:19.770Z,2.20
2023-04-12T19:29:47.812Z,2.28
2023-04-12T19:32:17.780Z,2.88
2023-04-12T19:34:46.413Z,2.58
2023-04-12T19:37:14.857Z,2.42
2023-04-12T19:39:43.384Z,2.85
2023-04-12T19:42:11.795Z,2.72
2023-04-12T19:44:41.046Z,3.22
2023-04-12T19:47:09.559Z,2.30
2023-04-12T19:49:39.262Z,2.42
2023-04-12T19:52:07.550Z,2.67
2023-04-12T19:54:35.978Z,2.30
2023-04-12T19:57:08.140Z,2.70
2023-04-12T19:59:39.820Z,3.15
2023-04-12T20:02:08.241Z,2.58
2023-04-12T20:04:36.780Z,2.67
2023-04-12T20:07:07.183Z,3.10
2023-04-12T20:09:36.877Z,2.72
2023-04-12T20:12:06.316Z,2.65
2023-04-12T20:14:37.271Z,2.80
2023-04-12T20:17:06.566Z,2.70
2023-04-12T20:19:34.981Z,3.00
2023-04-12T20:22:03.594Z,3.95
2023-04-12T20:24:34.559Z,6.50
2023-04-12T20:27:05.182Z,5.35
2023-04-12T20:29:34.788Z,4.85
2023-04-12T20:32:04.288Z,5.53
2023-04-12T20:34:32.604Z,5.93
2023-04-12T20:37:00.867Z,6.03
2023-04-12T20:39:29.739Z,6.03
2023-04-12T20:42:01.253Z,5.18
2023-04-12T20:44:29.872Z,5.07
2023-04-12T20:46:59.503Z,5.40
2023-04-12T20:49:31.635Z,6.25
2023-04-12T20:52:00.636Z,6.30
2023-04-12T20:54:31.637Z,5.93
2023-04-12T20:57:04.450Z,5.85
2023-04-12T20:59:33.518Z,5.40
2023-04-12T21:02:04.909Z,5.47
2023-04-12T21:04:36.659Z,6.10
2023-04-12T21:07:04.955Z,6.45
2023-04-12T21:09:34.184Z,5.15
2023-04-12T21:12:05.139Z,6.22
2023-04-12T21:14:34.971Z,5.35
2023-04-12T21:17:05.200Z,5.68
2023-04-12T21:19:33.536Z,5.72
2023-04-12T21:22:02.015Z,5.18
2023-04-12T21:24:31.011Z,4.57
2023-04-12T21:26:59.940Z,5.47
2023-04-12T21:29:31.986Z,4.30
2023-04-12T21:32:02.213Z,4.38
2023-04-12T21:34:32.646Z,4.65
2023-04-12T21:37:01.488Z,4.93
2023-04-12T21:39:29.953Z,4.50
2023-04-12T21:41:58.573Z,4.85
2023-04-12T21:44:27.247Z,3.80
2023-04-12T21:46:57.073Z,4.85
2023-04-12T21:49:30.107Z,4.80
2023-04-12T21:51:59.218Z,4.60
2023-04-12T21:54:28.966Z,4.70
2023-04-12T21:56:57.422Z,4.65
2023-04-12T21:59:27.124Z,4.05
2023-04-12T22:01:57.284Z,5.03
2023-04-12T22:04:25.918Z,4.97
2023-04-12T22:06:55.698Z,5.20
2023-04-12T22:09:24.718Z,5.75
2023-04-12T22:11:53.930Z,5.20
2023-04-12T22:14:23.912Z,4.22
2023-04-12T22:16:55.898Z,4.60
2023-04-12T22:19:25.539Z,4.47
2023-04-12T22:21:55.271Z,4.70
2023-04-12T22:24:26.313Z,4.40
2023-04-12T22:26:57.472Z,4.40
2023-04-12T22:29:26.296Z,5.47
2023-04-12T22:31:58.315Z,5.30
2023-04-12T22:34:29.000Z,5.45
2023-04-12T22:36:58.914Z,4.78
2023-04-12T22:39:27.877Z,5.07
2023-04-12T22:41:57.595Z,5.05
2023-04-12T22:44:27.005Z,4.32
2023-04-12T22:46:56.817Z,4.35
2023-04-12T22:49:28.548Z,4.80
2023-04-12T22:51:57.050Z,4.18
2023-04-12T22:54:25.889Z,4.88
2023-04-12T22:56:54.735Z,4.25
2023-04-12T22:59:24.798Z,4.05
2023-04-12T23:01:53.895Z,4.85
2023-04-12T23:04:25.203Z,4.50
2023-04-12T23:06:56.560Z,4.80
2023-04-12T23:09:25.873Z,4.35
2023-04-12T23:11:54.077Z,4.28
2023-04-12T23:14:22.760Z,4.45
2023-04-12T23:16:51.795Z,4.40
2023-04-12T23:19:20.434Z,4.35
2023-04-12T23:21:48.672Z,5.15
2023-04-12T23:24:18.650Z,4.13
2023-04-12T23:26:47.256Z,3.90
2023-04-12T23:29:15.784Z,4.75
2023-04-12T23:31:45.424Z,4.57
2023-04-12T23:34:13.692Z,3.72
2023-04-12T23:36:41.891Z,3.90
2023-04-12T23:39:14.807Z,3.97
2023-04-12T23:41:45.161Z,5.03
2023-04-12T23:44:13.751Z,4.22
2023-04-12T23:46:42.020Z,4.68
2023-04-12T23:49:10.282Z,4.18
2023-04-12T23:51:38.671Z,4.40
2023-04-12T23:54:08.701Z,3.55
2023-04-12T23:56:36.854Z,3.50
2023-04-12T23:59:07.036Z,4.03
